Atlantic, Iowa
Current Conditions -  °F | °C
As of 2:55 AM on Monday 22 Dec 2014 (Local Time) from KAIO Reporting Station
Haze Haze  
Wind Chill: 34°   Ceiling: 400
Heat Index: 41°   Visibility: 3mi
Dew Point: 41°   Wind: 13mph
Humidity: 100%   Direction: 170°S
Pressure: 29.62"   Gusts: NA
Location:  41.4°N, 95.01°W
Report Text: KAIO 220855Z AUTO 17011KT 3SM BR OVC004 05/05 A2962 RMK AO2
Loading
Personal Weather Stations






























Interactive Weather Map New forecast layout! Learn more

10-Day Weather Forecast

Advertisements
Track Severe Weather on mobile